KIAD/IAD METAR and TAF weather

Enter ICAO airport designator
Station Type Date Time Source
KIAD METAR 2019/05/19 20:52 UTC NOAA

KIAD 192052Z 18010G23KT 10SM FEW050 SCT065TCU BKN150 BKN250 31/19 A2989 RMK AO2 SLP118 TCU NE-SW T03110189 56025


Station Type Date Time Source
KIAD Decoded METAR 2019/05/19 20:52 UTC NOAA

DULLES INTERNATIONAL AIRPORT, VA, United States (KIAD) 38-56N 077-27W 93M
May 19, 2019 - 04:52 PM EDT / 2019.05.19 2052 UTC
Wind: from the S (180 degrees) at 12 MPH (10 KT) gusting to 26 MPH (23 KT):0
Visibility: 10 mile(s):0
Sky conditions: mostly cloudy
Weather: Towering cumulus clouds observed
Temperature: 88.0 F (31.1 C)
Dew Point: 66.0 F (18.9 C)
Relative Humidity: 48%
Pressure (altimeter): 29.89 in. Hg (1012 hPa)
Pressure tendency: 0.07 inches (2.5 hPa) lower than three hours ago
ob: KIAD 192052Z 18010G23KT 10SM FEW050 SCT065TCU BKN150 BKN250 31/19 A2989 RMK AO2 SLP118 TCU NE-SW T03110189 56025
cycle: 21

Station Type Date Time Source
KIAD TAF 2019/05/19 21:58 UTC NOAA

TAF
AMD KIAD 192057Z 1921/2024 18010G23KT P6SM SCT050
FM200300 18009KT P6SM SCT060
FM201100 21007KT P6SM BKN250
FM201500 23010G19KT P6SM BKN050

Example: see airport list